sensor_id;sensor_type;location;lat;lon;timestamp;P1;durP1;ratioP1;P2;durP2;ratioP2
43664;SDS011;29263;48.172;11.484;2023-02-15T00:01:28;70.93;;;11.00;;
43664;SDS011;29263;48.172;11.484;2023-02-15T00:03:55;29.30;;;10.10;;
43664;SDS011;29263;48.172;11.484;2023-02-15T00:06:21;14.07;;;9.30;;
43664;SDS011;29263;48.172;11.484;2023-02-15T00:08:46;40.80;;;9.80;;
43664;SDS011;29263;48.172;11.484;2023-02-15T00:11:13;19.43;;;8.50;;
43664;SDS011;29263;48.172;11.484;2023-02-15T00:13:40;27.83;;;8.80;;
43664;SDS011;29263;48.172;11.484;2023-02-15T00:16:07;36.73;;;9.17;;
43664;SDS011;29263;48.172;11.484;2023-02-15T00:18:37;34.13;;;10.70;;
43664;SDS011;29263;48.172;11.484;2023-02-15T00:21:08;13.33;;;8.23;;
43664;SDS011;29263;48.172;11.484;2023-02-15T00:23:35;16.20;;;8.40;;
43664;SDS011;29263;48.172;11.484;2023-02-15T00:26:11;92.63;;;15.00;;
43664;SDS011;29263;48.172;11.484;2023-02-15T00:28:37;24.47;;;9.67;;
43664;SDS011;29263;48.172;11.484;2023-02-15T00:31:06;32.67;;;9.03;;
43664;SDS011;29263;48.172;11.484;2023-02-15T00:33:34;31.77;;;8.53;;
43664;SDS011;29263;48.172;11.484;2023-02-15T00:36:00;36.20;;;9.50;;
43664;SDS011;29263;48.172;11.484;2023-02-15T00:38:27;14.40;;;8.33;;
43664;SDS011;29263;48.172;11.484;2023-02-15T00:40:55;23.10;;;8.73;;
43664;SDS011;29263;48.172;11.484;2023-02-15T00:43:21;73.83;;;10.30;;
43664;SDS011;29263;48.172;11.484;2023-02-15T00:45:47;15.07;;;8.73;;
43664;SDS011;29263;48.172;11.484;2023-02-15T00:48:13;21.00;;;8.83;;
43664;SDS011;29263;48.172;11.484;2023-02-15T00:50:39;14.53;;;8.17;;
43664;SDS011;29263;48.172;11.484;2023-02-15T00:53:05;13.97;;;7.30;;
43664;SDS011;29263;48.172;11.484;2023-02-15T00:55:30;17.50;;;9.83;;
43664;SDS011;29263;48.172;11.484;2023-02-15T00:57:56;15.03;;;7.63;;
43664;SDS011;29263;48.172;11.484;2023-02-15T01:00:22;38.07;;;10.13;;
43664;SDS011;29263;48.172;11.484;2023-02-15T01:02:47;12.17;;;8.07;;
43664;SDS011;29263;48.172;11.484;2023-02-15T01:05:13;31.33;;;8.37;;
43664;SDS011;29263;48.172;11.484;2023-02-15T01:07:38;13.67;;;8.03;;
43664;SDS011;29263;48.172;11.484;2023-02-15T01:10:05;12.30;;;7.43;;
43664;SDS011;29263;48.172;11.484;2023-02-15T01:12:31;18.60;;;8.27;;
43664;SDS011;29263;48.172;11.484;2023-02-15T01:14:57;11.90;;;8.10;;
43664;SDS011;29263;48.172;11.484;2023-02-15T01:17:23;15.93;;;7.60;;
43664;SDS011;29263;48.172;11.484;2023-02-15T01:19:48;36.77;;;8.63;;
43664;SDS011;29263;48.172;11.484;2023-02-15T01:22:14;12.37;;;7.80;;
43664;SDS011;29263;48.172;11.484;2023-02-15T01:24:40;13.63;;;7.00;;
43664;SDS011;29263;48.172;11.484;2023-02-15T01:27:05;72.93;;;8.53;;
43664;SDS011;29263;48.172;11.484;2023-02-15T01:29:31;11.97;;;7.33;;
43664;SDS011;29263;48.172;11.484;2023-02-15T01:31:57;12.87;;;7.53;;
43664;SDS011;29263;48.172;11.484;2023-02-15T01:34:22;44.03;;;8.13;;
43664;SDS011;29263;48.172;11.484;2023-02-15T01:36:48;19.73;;;7.47;;
43664;SDS011;29263;48.172;11.484;2023-02-15T01:39:13;15.33;;;6.37;;
43664;SDS011;29263;48.172;11.484;2023-02-15T01:41:40;13.37;;;7.53;;
43664;SDS011;29263;48.172;11.484;2023-02-15T01:47:08;17.20;;;6.87;;
43664;SDS011;29263;48.172;11.484;2023-02-15T01:49:36;16.58;;;6.72;;
43664;SDS011;29263;48.172;11.484;2023-02-15T01:52:06;8.87;;;6.13;;
43664;SDS011;29263;48.172;11.484;2023-02-15T01:54:34;32.23;;;7.27;;
43664;SDS011;29263;48.172;11.484;2023-02-15T01:57:05;10.82;;;7.10;;
43664;SDS011;29263;48.172;11.484;2023-02-15T01:59:35;8.20;;;5.80;;
43664;SDS011;29263;48.172;11.484;2023-02-15T02:02:04;12.35;;;7.05;;
43664;SDS011;29263;48.172;11.484;2023-02-15T02:07:08;12.87;;;7.07;;
43664;SDS011;29263;48.172;11.484;2023-02-15T02:09:37;23.75;;;7.18;;
43664;SDS011;29263;48.172;11.484;2023-02-15T02:12:03;8.93;;;6.50;;
43664;SDS011;29263;48.172;11.484;2023-02-15T02:14:29;14.00;;;6.73;;
43664;SDS011;29263;48.172;11.484;2023-02-15T02:16:58;13.20;;;6.30;;
43664;SDS011;29263;48.172;11.484;2023-02-15T02:36:52;13.30;;;7.23;;
43664;SDS011;29263;48.172;11.484;2023-02-15T02:39:29;10.90;;;7.50;;
43664;SDS011;29263;48.172;11.484;2023-02-15T02:44:36;11.50;;;7.67;;
43664;SDS011;29263;48.172;11.484;2023-02-15T02:47:09;13.90;;;7.57;;
43664;SDS011;29263;48.172;11.484;2023-02-15T02:49:41;18.70;;;7.23;;
43664;SDS011;29263;48.172;11.484;2023-02-15T02:55:01;23.53;;;7.93;;
43664;SDS011;29263;48.172;11.484;2023-02-15T02:59:56;17.20;;;7.10;;
43664;SDS011;29263;48.172;11.484;2023-02-15T03:02:26;16.77;;;6.97;;
43664;SDS011;29263;48.172;11.484;2023-02-15T03:04:59;27.80;;;7.23;;
43664;SDS011;29263;48.172;11.484;2023-02-15T03:07:28;16.03;;;7.10;;
43664;SDS011;29263;48.172;11.484;2023-02-15T03:09:57;13.23;;;6.77;;
43664;SDS011;29263;48.172;11.484;2023-02-15T03:15:04;17.37;;;7.27;;
43664;SDS011;29263;48.172;11.484;2023-02-15T03:17:38;26.20;;;7.90;;
43664;SDS011;29263;48.172;11.484;2023-02-15T03:20:11;16.17;;;7.87;;
43664;SDS011;29263;48.172;11.484;2023-02-15T03:22:42;21.23;;;8.73;;
43664;SDS011;29263;48.172;11.484;2023-02-15T03:25:22;31.07;;;7.07;;
43664;SDS011;29263;48.172;11.484;2023-02-15T03:27:53;30.73;;;8.97;;
43664;SDS011;29263;48.172;11.484;2023-02-15T03:30:23;11.97;;;7.37;;
43664;SDS011;29263;48.172;11.484;2023-02-15T03:32:50;41.17;;;8.33;;
43664;SDS011;29263;48.172;11.484;2023-02-15T03:35:17;43.63;;;8.40;;
43664;SDS011;29263;48.172;11.484;2023-02-15T03:37:50;69.13;;;10.07;;
43664;SDS011;29263;48.172;11.484;2023-02-15T03:43:43;71.43;;;8.93;;
43664;SDS011;29263;48.172;11.484;2023-02-15T03:46:35;31.55;;;7.55;;
43664;SDS011;29263;48.172;11.484;2023-02-15T03:49:14;33.83;;;11.00;;
43664;SDS011;29263;48.172;11.484;2023-02-15T03:51:50;48.03;;;8.00;;
43664;SDS011;29263;48.172;11.484;2023-02-15T03:54:24;12.57;;;7.13;;
43664;SDS011;29263;48.172;11.484;2023-02-15T03:57:07;21.13;;;7.33;;
43664;SDS011;29263;48.172;11.484;2023-02-15T03:59:56;45.83;;;8.48;;
43664;SDS011;29263;48.172;11.484;2023-02-15T04:05:16;18.00;;;7.43;;
43664;SDS011;29263;48.172;11.484;2023-02-15T04:07:41;20.70;;;7.80;;
43664;SDS011;29263;48.172;11.484;2023-02-15T04:10:07;9.90;;;7.07;;
43664;SDS011;29263;48.172;11.484;2023-02-15T04:12:51;14.80;;;6.93;;
43664;SDS011;29263;48.172;11.484;2023-02-15T04:15:17;20.07;;;7.80;;
43664;SDS011;29263;48.172;11.484;2023-02-15T04:18:04;13.10;;;7.03;;
43664;SDS011;29263;48.172;11.484;2023-02-15T04:20:29;23.73;;;7.33;;
43664;SDS011;29263;48.172;11.484;2023-02-15T04:23:13;17.90;;;7.83;;
43664;SDS011;29263;48.172;11.484;2023-02-15T04:25:57;9.27;;;6.60;;
43664;SDS011;29263;48.172;11.484;2023-02-15T04:28:23;11.07;;;7.17;;
43664;SDS011;29263;48.172;11.484;2023-02-15T04:30:48;56.80;;;10.33;;
43664;SDS011;29263;48.172;11.484;2023-02-15T04:33:14;16.67;;;8.00;;
43664;SDS011;29263;48.172;11.484;2023-02-15T04:35:40;15.67;;;7.63;;
43664;SDS011;29263;48.172;11.484;2023-02-15T04:38:05;24.73;;;7.47;;
43664;SDS011;29263;48.172;11.484;2023-02-15T04:40:31;13.30;;;7.27;;
43664;SDS011;29263;48.172;11.484;2023-02-15T04:42:56;12.77;;;7.53;;
43664;SDS011;29263;48.172;11.484;2023-02-15T04:45:22;25.90;;;8.47;;
43664;SDS011;29263;48.172;11.484;2023-02-15T04:47:48;36.47;;;8.17;;
43664;SDS011;29263;48.172;11.484;2023-02-15T04:50:14;15.67;;;7.70;;
43664;SDS011;29263;48.172;11.484;2023-02-15T04:52:39;12.23;;;7.20;;
43664;SDS011;29263;48.172;11.484;2023-02-15T04:55:05;22.63;;;7.30;;
43664;SDS011;29263;48.172;11.484;2023-02-15T04:57:31;14.67;;;6.93;;
43664;SDS011;29263;48.172;11.484;2023-02-15T04:59:57;11.53;;;7.47;;
43664;SDS011;29263;48.172;11.484;2023-02-15T05:02:24;43.17;;;7.47;;
43664;SDS011;29263;48.172;11.484;2023-02-15T05:04:49;13.93;;;7.30;;
43664;SDS011;29263;48.172;11.484;2023-02-15T05:07:15;23.87;;;7.23;;
43664;SDS011;29263;48.172;11.484;2023-02-15T05:09:41;55.60;;;10.43;;
43664;SDS011;29263;48.172;11.484;2023-02-15T05:12:06;63.70;;;8.53;;
43664;SDS011;29263;48.172;11.484;2023-02-15T05:14:32;27.03;;;7.80;;
43664;SDS011;29263;48.172;11.484;2023-02-15T05:16:57;35.23;;;8.87;;
43664;SDS011;29263;48.172;11.484;2023-02-15T05:19:26;12.03;;;8.00;;
43664;SDS011;29263;48.172;11.484;2023-02-15T05:21:52;19.30;;;8.00;;
43664;SDS011;29263;48.172;11.484;2023-02-15T05:24:17;19.53;;;6.87;;
43664;SDS011;29263;48.172;11.484;2023-02-15T05:27:01;15.73;;;8.40;;
43664;SDS011;29263;48.172;11.484;2023-02-15T05:29:46;17.30;;;8.67;;
43664;SDS011;29263;48.172;11.484;2023-02-15T05:32:12;13.83;;;7.70;;
43664;SDS011;29263;48.172;11.484;2023-02-15T05:34:39;23.53;;;8.77;;
43664;SDS011;29263;48.172;11.484;2023-02-15T05:37:04;13.43;;;8.63;;
43664;SDS011;29263;48.172;11.484;2023-02-15T05:39:30;16.27;;;8.77;;
43664;SDS011;29263;48.172;11.484;2023-02-15T05:41:58;12.10;;;7.57;;
43664;SDS011;29263;48.172;11.484;2023-02-15T05:44:24;13.95;;;8.35;;
43664;SDS011;29263;48.172;11.484;2023-02-15T05:46:50;14.33;;;8.10;;
43664;SDS011;29263;48.172;11.484;2023-02-15T05:49:16;13.43;;;8.67;;
43664;SDS011;29263;48.172;11.484;2023-02-15T05:51:42;11.93;;;7.43;;
43664;SDS011;29263;48.172;11.484;2023-02-15T05:54:08;21.77;;;8.27;;
43664;SDS011;29263;48.172;11.484;2023-02-15T05:56:34;19.20;;;7.70;;
43664;SDS011;29263;48.172;11.484;2023-02-15T05:58:59;13.90;;;8.47;;
43664;SDS011;29263;48.172;11.484;2023-02-15T06:01:25;14.00;;;8.80;;
43664;SDS011;29263;48.172;11.484;2023-02-15T06:03:50;13.70;;;7.87;;
43664;SDS011;29263;48.172;11.484;2023-02-15T06:06:17;11.90;;;7.87;;
43664;SDS011;29263;48.172;11.484;2023-02-15T06:08:43;14.80;;;8.00;;
43664;SDS011;29263;48.172;11.484;2023-02-15T06:11:08;12.00;;;7.87;;
43664;SDS011;29263;48.172;11.484;2023-02-15T06:13:34;17.17;;;7.73;;
43664;SDS011;29263;48.172;11.484;2023-02-15T06:16:00;51.97;;;8.60;;
43664;SDS011;29263;48.172;11.484;2023-02-15T06:18:26;17.47;;;8.00;;
43664;SDS011;29263;48.172;11.484;2023-02-15T06:20:51;22.27;;;9.27;;
43664;SDS011;29263;48.172;11.484;2023-02-15T06:23:17;19.70;;;8.73;;
43664;SDS011;29263;48.172;11.484;2023-02-15T06:25:44;22.47;;;8.20;;
43664;SDS011;29263;48.172;11.484;2023-02-15T06:28:10;16.17;;;7.63;;
43664;SDS011;29263;48.172;11.484;2023-02-15T06:30:36;13.53;;;7.93;;
43664;SDS011;29263;48.172;11.484;2023-02-15T06:33:01;11.27;;;7.90;;
43664;SDS011;29263;48.172;11.484;2023-02-15T06:35:27;16.00;;;8.47;;
43664;SDS011;29263;48.172;11.484;2023-02-15T06:37:52;19.00;;;8.67;;
43664;SDS011;29263;48.172;11.484;2023-02-15T06:40:18;13.10;;;8.43;;
43664;SDS011;29263;48.172;11.484;2023-02-15T06:42:44;12.07;;;7.87;;
43664;SDS011;29263;48.172;11.484;2023-02-15T06:45:10;15.73;;;8.07;;
43664;SDS011;29263;48.172;11.484;2023-02-15T06:47:35;12.77;;;7.93;;
43664;SDS011;29263;48.172;11.484;2023-02-15T06:50:02;12.00;;;7.87;;
43664;SDS011;29263;48.172;11.484;2023-02-15T06:54:56;11.57;;;7.73;;
43664;SDS011;29263;48.172;11.484;2023-02-15T06:57:22;12.20;;;7.80;;
43664;SDS011;29263;48.172;11.484;2023-02-15T06:59:48;14.40;;;8.87;;
43664;SDS011;29263;48.172;11.484;2023-02-15T07:02:13;12.63;;;8.27;;
43664;SDS011;29263;48.172;11.484;2023-02-15T07:04:39;13.53;;;7.67;;
43664;SDS011;29263;48.172;11.484;2023-02-15T07:07:07;18.77;;;8.43;;
43664;SDS011;29263;48.172;11.484;2023-02-15T07:09:34;12.88;;;8.23;;
43664;SDS011;29263;48.172;11.484;2023-02-15T07:11:59;13.07;;;8.20;;
43664;SDS011;29263;48.172;11.484;2023-02-15T07:14:44;13.63;;;8.07;;
43664;SDS011;29263;48.172;11.484;2023-02-15T07:17:09;10.83;;;7.70;;
43664;SDS011;29263;48.172;11.484;2023-02-15T07:19:35;32.13;;;9.63;;
43664;SDS011;29263;48.172;11.484;2023-02-15T07:22:01;21.67;;;8.40;;
43664;SDS011;29263;48.172;11.484;2023-02-15T07:24:28;11.53;;;8.53;;
43664;SDS011;29263;48.172;11.484;2023-02-15T07:26:54;13.53;;;9.00;;
43664;SDS011;29263;48.172;11.484;2023-02-15T07:29:19;13.90;;;8.77;;
43664;SDS011;29263;48.172;11.484;2023-02-15T07:31:45;19.13;;;8.27;;
43664;SDS011;29263;48.172;11.484;2023-02-15T07:34:11;13.40;;;9.10;;
43664;SDS011;29263;48.172;11.484;2023-02-15T07:36:37;11.43;;;8.07;;
43664;SDS011;29263;48.172;11.484;2023-02-15T07:39:02;15.63;;;9.30;;
43664;SDS011;29263;48.172;11.484;2023-02-15T07:41:28;14.87;;;8.33;;
43664;SDS011;29263;48.172;11.484;2023-02-15T07:43:54;15.80;;;10.03;;
43664;SDS011;29263;48.172;11.484;2023-02-15T07:46:19;24.43;;;9.47;;
43664;SDS011;29263;48.172;11.484;2023-02-15T07:48:45;14.50;;;9.53;;
43664;SDS011;29263;48.172;11.484;2023-02-15T07:51:11;15.63;;;9.30;;
43664;SDS011;29263;48.172;11.484;2023-02-15T07:53:37;15.27;;;9.80;;
43664;SDS011;29263;48.172;11.484;2023-02-15T07:56:05;20.53;;;10.53;;
43664;SDS011;29263;48.172;11.484;2023-02-15T07:58:33;44.80;;;12.00;;
43664;SDS011;29263;48.172;11.484;2023-02-15T08:01:27;25.17;;;9.83;;
43664;SDS011;29263;48.172;11.484;2023-02-15T08:03:55;20.70;;;9.87;;
43664;SDS011;29263;48.172;11.484;2023-02-15T08:06:22;31.07;;;10.70;;
43664;SDS011;29263;48.172;11.484;2023-02-15T08:08:50;21.00;;;9.55;;
43664;SDS011;29263;48.172;11.484;2023-02-15T08:11:20;17.60;;;9.87;;
43664;SDS011;29263;48.172;11.484;2023-02-15T08:13:59;19.23;;;9.97;;
43664;SDS011;29263;48.172;11.484;2023-02-15T08:18:58;18.10;;;10.50;;
43664;SDS011;29263;48.172;11.484;2023-02-15T08:21:26;16.10;;;10.23;;
43664;SDS011;29263;48.172;11.484;2023-02-15T08:23:54;15.67;;;10.37;;
43664;SDS011;29263;48.172;11.484;2023-02-15T08:26:22;17.87;;;10.07;;
43664;SDS011;29263;48.172;11.484;2023-02-15T08:28:48;17.50;;;10.83;;
43664;SDS011;29263;48.172;11.484;2023-02-15T08:31:15;15.73;;;10.60;;
43664;SDS011;29263;48.172;11.484;2023-02-15T08:33:42;23.23;;;11.57;;
43664;SDS011;29263;48.172;11.484;2023-02-15T08:36:09;18.10;;;11.00;;
43664;SDS011;29263;48.172;11.484;2023-02-15T08:38:37;18.73;;;10.70;;
43664;SDS011;29263;48.172;11.484;2023-02-15T08:41:13;19.13;;;11.07;;
43664;SDS011;29263;48.172;11.484;2023-02-15T08:43:39;16.20;;;10.57;;
43664;SDS011;29263;48.172;11.484;2023-02-15T08:46:05;16.07;;;10.77;;
43664;SDS011;29263;48.172;11.484;2023-02-15T08:48:31;18.23;;;10.30;;
43664;SDS011;29263;48.172;11.484;2023-02-15T08:50:57;15.20;;;9.80;;
43664;SDS011;29263;48.172;11.484;2023-02-15T08:53:23;16.13;;;11.13;;
43664;SDS011;29263;48.172;11.484;2023-02-15T08:55:55;17.23;;;11.10;;
43664;SDS011;29263;48.172;11.484;2023-02-15T08:58:24;16.03;;;10.17;;
43664;SDS011;29263;48.172;11.484;2023-02-15T09:00:50;23.47;;;12.43;;
43664;SDS011;29263;48.172;11.484;2023-02-15T09:03:16;18.83;;;11.60;;
43664;SDS011;29263;48.172;11.484;2023-02-15T09:05:42;18.13;;;10.57;;
43664;SDS011;29263;48.172;11.484;2023-02-15T09:08:07;19.53;;;11.00;;
43664;SDS011;29263;48.172;11.484;2023-02-15T09:10:33;18.03;;;10.43;;
43664;SDS011;29263;48.172;11.484;2023-02-15T09:12:59;19.30;;;11.03;;
43664;SDS011;29263;48.172;11.484;2023-02-15T09:15:24;18.97;;;11.67;;
43664;SDS011;29263;48.172;11.484;2023-02-15T09:17:50;16.57;;;10.53;;
43664;SDS011;29263;48.172;11.484;2023-02-15T09:20:15;14.83;;;9.77;;
43664;SDS011;29263;48.172;11.484;2023-02-15T09:22:41;18.67;;;11.33;;
43664;SDS011;29263;48.172;11.484;2023-02-15T09:25:07;16.10;;;10.57;;
43664;SDS011;29263;48.172;11.484;2023-02-15T09:27:32;18.90;;;11.40;;
43664;SDS011;29263;48.172;11.484;2023-02-15T09:29:58;18.00;;;10.83;;
43664;SDS011;29263;48.172;11.484;2023-02-15T09:32:24;17.07;;;10.90;;
43664;SDS011;29263;48.172;11.484;2023-02-15T09:34:49;21.27;;;11.47;;
43664;SDS011;29263;48.172;11.484;2023-02-15T09:37:15;17.43;;;11.73;;
43664;SDS011;29263;48.172;11.484;2023-02-15T09:39:41;18.15;;;12.85;;
43664;SDS011;29263;48.172;11.484;2023-02-15T09:45:06;21.53;;;12.80;;
43664;SDS011;29263;48.172;11.484;2023-02-15T09:58:53;18.23;;;12.17;;
43664;SDS011;29263;48.172;11.484;2023-02-15T10:12:28;20.33;;;12.83;;
43664;SDS011;29263;48.172;11.484;2023-02-15T10:26:25;20.37;;;12.93;;
43664;SDS011;29263;48.172;11.484;2023-02-15T10:28:53;19.10;;;13.37;;
43664;SDS011;29263;48.172;11.484;2023-02-15T10:31:28;22.17;;;12.83;;
43664;SDS011;29263;48.172;11.484;2023-02-15T10:34:07;21.20;;;12.80;;
43664;SDS011;29263;48.172;11.484;2023-02-15T11:01:24;21.30;;;14.47;;
43664;SDS011;29263;48.172;11.484;2023-02-15T11:04:07;19.63;;;14.30;;
43664;SDS011;29263;48.172;11.484;2023-02-15T11:06:35;24.23;;;13.57;;
43664;SDS011;29263;48.172;11.484;2023-02-15T11:09:07;20.25;;;13.60;;
43664;SDS011;29263;48.172;11.484;2023-02-15T11:11:37;20.60;;;14.07;;
43664;SDS011;29263;48.172;11.484;2023-02-15T11:14:15;22.93;;;14.13;;
43664;SDS011;29263;48.172;11.484;2023-02-15T11:16:50;23.40;;;14.13;;
43664;SDS011;29263;48.172;11.484;2023-02-15T11:19:24;22.33;;;14.40;;
43664;SDS011;29263;48.172;11.484;2023-02-15T11:22:00;28.70;;;14.23;;
43664;SDS011;29263;48.172;11.484;2023-02-15T11:24:29;22.43;;;13.70;;
43664;SDS011;29263;48.172;11.484;2023-02-15T11:27:12;22.37;;;14.17;;
43664;SDS011;29263;48.172;11.484;2023-02-15T11:32:25;26.00;;;13.97;;
43664;SDS011;29263;48.172;11.484;2023-02-15T11:42:51;22.33;;;14.43;;
43664;SDS011;29263;48.172;11.484;2023-02-15T11:47:59;24.15;;;15.10;;
43664;SDS011;29263;48.172;11.484;2023-02-15T11:50:27;24.57;;;13.77;;
43664;SDS011;29263;48.172;11.484;2023-02-15T11:53:01;21.70;;;14.67;;
43664;SDS011;29263;48.172;11.484;2023-02-15T11:55:29;22.30;;;14.70;;
43664;SDS011;29263;48.172;11.484;2023-02-15T11:57:59;21.53;;;14.17;;
43664;SDS011;29263;48.172;11.484;2023-02-15T12:00:42;22.73;;;13.50;;
43664;SDS011;29263;48.172;11.484;2023-02-15T12:06:17;22.40;;;14.83;;
43664;SDS011;29263;48.172;11.484;2023-02-15T12:11:37;22.47;;;14.13;;
43664;SDS011;29263;48.172;11.484;2023-02-15T12:14:05;18.83;;;13.43;;
43664;SDS011;29263;48.172;11.484;2023-02-15T12:16:54;24.83;;;13.40;;
43664;SDS011;29263;48.172;11.484;2023-02-15T12:19:32;24.00;;;14.03;;
43664;SDS011;29263;48.172;11.484;2023-02-15T12:22:04;19.60;;;13.47;;
43664;SDS011;29263;48.172;11.484;2023-02-15T12:24:45;21.13;;;13.90;;
43664;SDS011;29263;48.172;11.484;2023-02-15T12:27:15;18.55;;;13.45;;
43664;SDS011;29263;48.172;11.484;2023-02-15T12:29:48;22.00;;;14.60;;
43664;SDS011;29263;48.172;11.484;2023-02-15T12:32:22;23.70;;;14.07;;
43664;SDS011;29263;48.172;11.484;2023-02-15T12:34:50;21.27;;;13.40;;
43664;SDS011;29263;48.172;11.484;2023-02-15T12:37:21;22.20;;;13.67;;
43664;SDS011;29263;48.172;11.484;2023-02-15T12:39:51;22.97;;;13.77;;
43664;SDS011;29263;48.172;11.484;2023-02-15T12:42:21;20.83;;;13.60;;
43664;SDS011;29263;48.172;11.484;2023-02-15T12:48:09;21.87;;;12.97;;
43664;SDS011;29263;48.172;11.484;2023-02-15T12:50:39;23.50;;;13.00;;
43664;SDS011;29263;48.172;11.484;2023-02-15T12:55:58;19.90;;;13.33;;
43664;SDS011;29263;48.172;11.484;2023-02-15T12:58:32;19.83;;;12.47;;
43664;SDS011;29263;48.172;11.484;2023-02-15T13:01:12;21.37;;;12.90;;
43664;SDS011;29263;48.172;11.484;2023-02-15T13:04:00;18.67;;;12.07;;
43664;SDS011;29263;48.172;11.484;2023-02-15T13:06:30;20.30;;;12.80;;
43664;SDS011;29263;48.172;11.484;2023-02-15T13:09:06;22.67;;;13.67;;
43664;SDS011;29263;48.172;11.484;2023-02-15T13:11:41;19.13;;;12.70;;
43664;SDS011;29263;48.172;11.484;2023-02-15T13:17:00;20.57;;;12.63;;
43664;SDS011;29263;48.172;11.484;2023-02-15T13:24:48;20.53;;;11.63;;
43664;SDS011;29263;48.172;11.484;2023-02-15T13:27:18;20.47;;;12.80;;
43664;SDS011;29263;48.172;11.484;2023-02-15T13:29:49;17.92;;;12.57;;
43664;SDS011;29263;48.172;11.484;2023-02-15T13:34:53;20.80;;;12.53;;
43664;SDS011;29263;48.172;11.484;2023-02-15T13:39:48;23.27;;;12.57;;
43664;SDS011;29263;48.172;11.484;2023-02-15T13:42:45;20.53;;;12.83;;
43664;SDS011;29263;48.172;11.484;2023-02-15T14:06:50;18.23;;;11.93;;
43664;SDS011;29263;48.172;11.484;2023-02-15T14:17:53;16.63;;;11.30;;
43664;SDS011;29263;48.172;11.484;2023-02-15T14:26:21;17.53;;;10.30;;
43664;SDS011;29263;48.172;11.484;2023-02-15T14:29:06;16.30;;;9.70;;
43664;SDS011;29263;48.172;11.484;2023-02-15T14:31:58;17.37;;;10.10;;
43664;SDS011;29263;48.172;11.484;2023-02-15T14:37:17;15.25;;;9.90;;
43664;SDS011;29263;48.172;11.484;2023-02-15T14:39:55;18.65;;;9.82;;
43664;SDS011;29263;48.172;11.484;2023-02-15T14:45:58;16.13;;;9.50;;
43664;SDS011;29263;48.172;11.484;2023-02-15T14:48:39;15.65;;;8.95;;
43664;SDS011;29263;48.172;11.484;2023-02-15T14:51:13;12.35;;;9.05;;
43664;SDS011;29263;48.172;11.484;2023-02-15T14:57:37;13.00;;;10.10;;
43664;SDS011;29263;48.172;11.484;2023-02-15T15:00:03;12.25;;;9.65;;
43664;SDS011;29263;48.172;11.484;2023-02-15T15:02:49;14.20;;;9.52;;
43664;SDS011;29263;48.172;11.484;2023-02-15T15:05:22;14.88;;;9.82;;
43664;SDS011;29263;48.172;11.484;2023-02-15T15:07:59;12.43;;;9.55;;
43664;SDS011;29263;48.172;11.484;2023-02-15T15:10:32;12.05;;;9.77;;
43664;SDS011;29263;48.172;11.484;2023-02-15T15:15:56;14.27;;;10.07;;
43664;SDS011;29263;48.172;11.484;2023-02-15T15:21:24;15.17;;;10.30;;
43664;SDS011;29263;48.172;11.484;2023-02-15T15:32:49;14.50;;;9.83;;
43664;SDS011;29263;48.172;11.484;2023-02-15T15:35:29;14.33;;;10.57;;
43664;SDS011;29263;48.172;11.484;2023-02-15T15:41:05;16.50;;;11.07;;
43664;SDS011;29263;48.172;11.484;2023-02-15T15:47:05;17.47;;;11.47;;
43664;SDS011;29263;48.172;11.484;2023-02-15T15:49:49;14.90;;;10.70;;
43664;SDS011;29263;48.172;11.484;2023-02-15T15:52:20;20.03;;;11.43;;
43664;SDS011;29263;48.172;11.484;2023-02-15T15:54:48;17.93;;;11.77;;
43664;SDS011;29263;48.172;11.484;2023-02-15T16:00:02;19.00;;;11.40;;
43664;SDS011;29263;48.172;11.484;2023-02-15T16:02:28;18.17;;;11.30;;
43664;SDS011;29263;48.172;11.484;2023-02-15T16:04:54;17.03;;;11.47;;
43664;SDS011;29263;48.172;11.484;2023-02-15T16:07:30;18.90;;;11.83;;
43664;SDS011;29263;48.172;11.484;2023-02-15T16:10:01;17.93;;;11.20;;
43664;SDS011;29263;48.172;11.484;2023-02-15T16:12:28;17.97;;;12.03;;
43664;SDS011;29263;48.172;11.484;2023-02-15T16:14:56;20.90;;;12.53;;
43664;SDS011;29263;48.172;11.484;2023-02-15T16:17:23;21.13;;;11.50;;
43664;SDS011;29263;48.172;11.484;2023-02-15T16:19:50;18.23;;;12.80;;
43664;SDS011;29263;48.172;11.484;2023-02-15T16:22:21;19.27;;;12.63;;
43664;SDS011;29263;48.172;11.484;2023-02-15T16:27:46;19.60;;;12.93;;
43664;SDS011;29263;48.172;11.484;2023-02-15T16:30:31;21.37;;;12.90;;
43664;SDS011;29263;48.172;11.484;2023-02-15T16:33:06;17.57;;;12.33;;
43664;SDS011;29263;48.172;11.484;2023-02-15T16:35:34;21.00;;;13.07;;
43664;SDS011;29263;48.172;11.484;2023-02-15T16:38:02;22.93;;;14.00;;
43664;SDS011;29263;48.172;11.484;2023-02-15T16:40:35;20.77;;;12.67;;
43664;SDS011;29263;48.172;11.484;2023-02-15T16:43:21;19.70;;;13.20;;
43664;SDS011;29263;48.172;11.484;2023-02-15T16:45:52;24.27;;;13.90;;
43664;SDS011;29263;48.172;11.484;2023-02-15T16:48:27;19.33;;;13.73;;
43664;SDS011;29263;48.172;11.484;2023-02-15T16:50:54;23.20;;;15.13;;
43664;SDS011;29263;48.172;11.484;2023-02-15T16:53:23;24.50;;;14.15;;
43664;SDS011;29263;48.172;11.484;2023-02-15T16:55:52;23.85;;;14.85;;
43664;SDS011;29263;48.172;11.484;2023-02-15T16:58:23;26.98;;;16.35;;
43664;SDS011;29263;48.172;11.484;2023-02-15T17:00:59;26.00;;;16.73;;
43664;SDS011;29263;48.172;11.484;2023-02-15T17:03:27;29.07;;;17.17;;
43664;SDS011;29263;48.172;11.484;2023-02-15T17:05:54;29.60;;;19.10;;
43664;SDS011;29263;48.172;11.484;2023-02-15T17:08:29;31.70;;;19.92;;
43664;SDS011;29263;48.172;11.484;2023-02-15T17:19:01;34.63;;;19.50;;
43664;SDS011;29263;48.172;11.484;2023-02-15T17:21:37;40.77;;;20.33;;
43664;SDS011;29263;48.172;11.484;2023-02-15T17:24:06;35.30;;;20.33;;
43664;SDS011;29263;48.172;11.484;2023-02-15T17:26:40;34.40;;;20.30;;
43664;SDS011;29263;48.172;11.484;2023-02-15T17:29:11;37.23;;;21.57;;
43664;SDS011;29263;48.172;11.484;2023-02-15T17:31:47;32.50;;;20.07;;
43664;SDS011;29263;48.172;11.484;2023-02-15T17:39:59;35.83;;;21.10;;
43664;SDS011;29263;48.172;11.484;2023-02-15T17:42:26;36.43;;;21.83;;
43664;SDS011;29263;48.172;11.484;2023-02-15T17:44:51;37.10;;;21.20;;
43664;SDS011;29263;48.172;11.484;2023-02-15T17:47:18;35.43;;;20.80;;
43664;SDS011;29263;48.172;11.484;2023-02-15T17:49:46;34.75;;;20.60;;
43664;SDS011;29263;48.172;11.484;2023-02-15T17:52:14;41.13;;;21.00;;
43664;SDS011;29263;48.172;11.484;2023-02-15T17:54:41;38.97;;;20.37;;
43664;SDS011;29263;48.172;11.484;2023-02-15T17:57:25;32.60;;;19.87;;
43664;SDS011;29263;48.172;11.484;2023-02-15T17:59:52;39.03;;;19.70;;
43664;SDS011;29263;48.172;11.484;2023-02-15T18:02:36;40.07;;;18.93;;
43664;SDS011;29263;48.172;11.484;2023-02-15T18:05:21;35.23;;;19.10;;
43664;SDS011;29263;48.172;11.484;2023-02-15T18:08:15;34.23;;;18.20;;
43664;SDS011;29263;48.172;11.484;2023-02-15T18:11:01;34.40;;;18.50;;
43664;SDS011;29263;48.172;11.484;2023-02-15T18:13:45;82.37;;;21.93;;
43664;SDS011;29263;48.172;11.484;2023-02-15T18:16:12;48.70;;;21.93;;
43664;SDS011;29263;48.172;11.484;2023-02-15T18:18:39;39.70;;;20.87;;
43664;SDS011;29263;48.172;11.484;2023-02-15T18:21:05;40.17;;;20.80;;
43664;SDS011;29263;48.172;11.484;2023-02-15T18:23:32;46.20;;;21.60;;